Time;durP1;ratioP1;P1;durP2;ratioP2;P2;SDS_P1;SDS_P2;PMS_P1;PMS_P2;Temp;Humidity;BMP_temperature;BMP_pressure;BME280_temperature;BME280_humidity;BME280_pressure;Samples;Min_cycle;Max_cycle;Signal;HPM_P1;HPM_P2
2022/12/05 00:01:41;;;;;;;26.93;14.23;;;;;;;;;;4989842;28;20041;-80
2022/12/05 00:04:09;;;;;;;25.70;13.97;;;;;;;;;;4990919;28;20106;-78
2022/12/05 00:06:37;;;;;;;26.03;14.37;;;;;;;;;;4989652;28;20030;-79
2022/12/05 00:09:03;;;;;;;37.07;18.37;;;;;;;;;;4991621;28;20045;-79
2022/12/05 00:11:31;;;;;;;26.87;14.60;;;;;;;;;;4989848;28;20026;-78
2022/12/05 00:13:59;;;;;;;26.23;13.63;;;;;;;;;;4989582;28;20065;-78
2022/12/05 00:16:26;;;;;;;28.77;13.77;;;;;;;;;;4991362;28;20030;-79
2022/12/05 00:18:52;;;;;;;28.37;14.93;;;;;;;;;;5005869;28;20034;-79
2022/12/05 00:21:24;;;;;;;30.70;15.57;;;;;;;;;;4989452;28;20027;-79
2022/12/05 00:23:51;;;;;;;;;;;;;;;;;;4989939;28;20024;-79
2022/12/05 00:26:16;;;;;;;33.37;14.13;;;;;;;;;;4989443;28;20329;-79
2022/12/05 00:28:42;;;;;;;28.20;14.90;;;;;;;;;;5005876;28;20062;-79
2022/12/05 00:31:10;;;;;;;28.47;14.30;;;;;;;;;;4989722;28;20129;-79
2022/12/05 00:33:36;;;;;;;27.40;14.63;;;;;;;;;;4989773;28;20021;-79
2022/12/05 00:36:14;;;;;;;30.70;14.67;;;;;;;;;;4989430;28;20113;-80
2022/12/05 00:38:41;;;;;;;26.30;14.77;;;;;;;;;;4989409;28;20038;-80
2022/12/05 00:41:27;;;;;;;28.23;15.33;;;;;;;;;;4989596;28;20022;-80
2022/12/05 00:43:54;;;;;;;26.87;13.50;;;;;;;;;;4988959;28;20077;-79
2022/12/05 00:46:23;;;;;;;29.47;13.40;;;;;;;;;;4990773;28;20558;-79
2022/12/05 00:48:51;;;;;;;25.10;12.77;;;;;;;;;;4990669;28;20123;-79
2022/12/05 00:51:22;;;;;;;26.93;13.90;;;;;;;;;;4990771;28;20038;-79
2022/12/05 00:53:49;;;;;;;26.13;13.40;;;;;;;;;;4989376;28;20022;-79
2022/12/05 00:56:17;;;;;;;28.67;14.30;;;;;;;;;;4990796;28;20105;-78
2022/12/05 00:58:44;;;;;;;23.77;13.87;;;;;;;;;;4990952;28;20034;-79
2022/12/05 01:01:15;;;;;;;24.07;12.93;;;;;;;;;;4973017;28;20045;-79
2022/12/05 01:03:41;;;;;;;27.40;15.13;;;;;;;;;;4989368;28;20042;-79
2022/12/05 01:06:07;;;;;;;26.77;14.17;;;;;;;;;;4989700;28;20062;-79
2022/12/05 01:08:34;;;;;;;26.27;14.03;;;;;;;;;;4990933;28;20087;-79
2022/12/05 01:11:00;;;;;;;24.03;13.30;;;;;;;;;;4991902;28;20138;-79
2022/12/05 01:13:27;;;;;;;23.67;12.93;;;;;;;;;;4993428;28;20041;-78
2022/12/05 01:15:53;;;;;;;27.17;13.83;;;;;;;;;;4992904;28;20018;-79
2022/12/05 01:18:19;;;;;;;28.07;16.03;;;;;;;;;;4994682;28;20033;-79
2022/12/05 01:20:47;;;;;;;24.70;13.63;;;;;;;;;;4993262;28;20084;-80
2022/12/05 01:23:13;;;;;;;23.47;13.00;;;;;;;;;;4994580;28;20025;-78
2022/12/05 01:25:43;;;;;;;23.07;12.93;;;;;;;;;;4992893;28;20555;-79
2022/12/05 01:28:08;;;;;;;25.60;13.03;;;;;;;;;;4973574;28;20048;-78
2022/12/05 01:30:42;;;;;;;26.13;14.47;;;;;;;;;;4974925;28;20221;-79
2022/12/05 01:33:08;;;;;;;23.73;13.90;;;;;;;;;;4974555;28;20030;-78
2022/12/05 01:35:36;;;;;;;22.23;12.17;;;;;;;;;;4973146;28;20630;-79
2022/12/05 01:38:02;;;;;;;22.03;12.53;;;;;;;;;;4973506;28;20026;-79
2022/12/05 01:40:28;;;;;;;23.30;13.87;;;;;;;;;;4974024;28;20125;-79
2022/12/05 01:42:54;;;;;;;23.95;13.98;;;;;;;;;;4973745;28;20109;-80
2022/12/05 01:45:45;;;;;;;25.17;12.87;;;;;;;;;;4975015;28;20464;-79
2022/12/05 01:48:29;;;;;;;24.50;12.00;;;;;;;;;;4972536;28;20038;-79
2022/12/05 01:50:56;;;;;;;24.83;12.17;;;;;;;;;;4973003;28;20463;-79
2022/12/05 01:53:22;;;;;;;25.80;12.67;;;;;;;;;;4989261;28;20090;-79
2022/12/05 01:55:49;;;;;;;23.37;12.27;;;;;;;;;;4972862;28;20050;-79
2022/12/05 01:58:15;;;;;;;21.73;11.30;;;;;;;;;;4989327;28;20034;-80
2022/12/05 02:00:41;;;;;;;22.90;12.57;;;;;;;;;;4972179;28;20120;-79
2022/12/05 02:03:13;;;;;;;19.73;11.37;;;;;;;;;;4972758;28;20027;-79
2022/12/05 02:05:38;;;;;;;20.30;10.70;;;;;;;;;;4974438;28;20027;-79
2022/12/05 02:08:10;;;;;;;23.13;11.33;;;;;;;;;;4974258;28;20065;-79
2022/12/05 02:10:46;;;;;;;21.17;11.98;;;;;;;;;;4974335;28;20466;-79
2022/12/05 02:14:03;;;;;;;20.30;11.43;;;;;;;;;;4972840;28;20023;-79
2022/12/05 02:17:10;;;;;;;19.23;11.03;;;;;;;;;;4961633;28;20182;-79
2022/12/05 02:19:53;;;;;;;22.40;11.50;;;;;;;;;;4973280;28;20517;-79
2022/12/05 02:23:04;;;;;;;21.47;12.03;;;;;;;;;;4973478;28;20014;-79
2022/12/05 02:25:39;;;;;;;21.67;11.37;;;;;;;;;;4965089;28;20132;-80
2022/12/05 02:28:18;;;;;;;19.60;10.97;;;;;;;;;;4992561;28;20088;-78
2022/12/05 02:30:56;;;;;;;21.63;10.97;;;;;;;;;;4992278;28;20030;-79
2022/12/05 02:33:36;;;;;;;20.10;10.77;;;;;;;;;;4991964;28;20655;-79
2022/12/05 02:36:04;;;;;;;19.00;10.70;;;;;;;;;;4993447;28;20030;-79
2022/12/05 02:39:04;;;;;;;20.43;11.60;;;;;;;;;;4994215;28;20033;-79
2022/12/05 02:41:43;;;;;;;19.93;10.63;;;;;;;;;;4992412;28;20036;-79
2022/12/05 02:44:15;;;;;;;19.20;10.27;;;;;;;;;;5008054;28;20030;-79
2022/12/05 02:46:43;;;;;;;18.53;10.40;;;;;;;;;;4991305;28;20474;-79
2022/12/05 02:49:17;;;;;;;16.27;9.33;;;;;;;;;;4991886;28;20435;-78
2022/12/05 02:51:52;;;;;;;17.07;9.87;;;;;;;;;;4992439;28;20113;-80
2022/12/05 02:54:23;;;;;;;21.67;10.20;;;;;;;;;;4993517;28;20537;-79
2022/12/05 02:56:51;;;;;;;20.30;10.67;;;;;;;;;;4991164;28;20050;-80
2022/12/05 02:59:16;;;;;;;18.15;10.10;;;;;;;;;;4991015;28;20287;-80
2022/12/05 03:01:45;;;;;;;17.03;9.30;;;;;;;;;;4991215;28;20455;-80
2022/12/05 03:04:12;;;;;;;19.23;8.67;;;;;;;;;;5006999;28;20109;-80
2022/12/05 03:06:43;;;;;;;18.90;9.33;;;;;;;;;;5007439;28;20399;-80
2022/12/05 03:09:12;;;;;;;15.33;8.83;;;;;;;;;;4992305;28;20362;-79
2022/12/05 03:11:50;;;;;;;14.63;9.00;;;;;;;;;;4999371;28;20026;-79
2022/12/05 03:14:27;;;;;;;19.20;9.10;;;;;;;;;;4994822;28;20060;-79
2022/12/05 03:16:58;;;;;;;15.27;9.10;;;;;;;;;;4992819;28;20018;-79
2022/12/05 03:19:29;;;;;;;15.63;8.80;;;;;;;;;;4990973;28;20085;-79
2022/12/05 03:22:01;;;;;;;16.57;9.37;;;;;;;;;;4990668;28;20113;-79
2022/12/05 03:24:28;;;;;;;16.00;8.97;;;;;;;;;;4992695;28;20085;-79
2022/12/05 03:27:19;;;;;;;16.67;9.57;;;;;;;;;;4987368;28;20030;-78
2022/12/05 03:30:14;;;;;;;14.93;9.10;;;;;;;;;;4971632;28;20128;-79
2022/12/05 03:32:48;;;;;;;20.40;10.33;;;;;;;;;;4989395;28;20042;-79
2022/12/05 03:35:18;;;;;;;14.70;9.33;;;;;;;;;;4992537;28;20026;-80
2022/12/05 03:37:51;;;;;;;19.90;9.80;;;;;;;;;;4991447;28;20471;-78
2022/12/05 03:40:37;;;;;;;17.20;9.50;;;;;;;;;;4992040;28;20030;-79
2022/12/05 03:43:22;;;;;;;16.57;8.53;;;;;;;;;;4991919;28;20478;-78
2022/12/05 03:46:17;;;;;;;15.57;8.77;;;;;;;;;;4991016;28;20085;-78
2022/12/05 03:48:54;;;;;;;14.83;8.47;;;;;;;;;;4992099;28;20471;-79
2022/12/05 03:51:26;;;;;;;15.40;8.13;;;;;;;;;;4990937;28;20037;-79
2022/12/05 03:54:07;;;;;;;17.13;9.07;;;;;;;;;;5006220;28;20340;-79
2022/12/05 03:57:04;;;;;;;18.13;8.93;;;;;;;;;;4990181;28;20080;-79
2022/12/05 03:59:56;;;;;;;15.63;8.83;;;;;;;;;;5006186;28;20121;-79
2022/12/05 04:02:31;;;;;;;17.37;8.90;;;;;;;;;;4991505;28;20027;-79
2022/12/05 04:05:02;;;;;;;17.43;9.20;;;;;;;;;;4991496;28;20086;-77
2022/12/05 04:07:30;;;;;;;16.13;8.43;;;;;;;;;;4991263;28;20097;-80
2022/12/05 04:10:00;;;;;;;16.63;9.17;;;;;;;;;;4990007;28;20033;-79
2022/12/05 04:12:30;;;;;;;12.43;8.57;;;;;;;;;;4989923;28;20030;-79
2022/12/05 04:15:07;;;;;;;15.33;9.23;;;;;;;;;;4991319;28;20052;-79
2022/12/05 04:17:49;;;;;;;19.00;9.10;;;;;;;;;;4989705;28;20031;-79
2022/12/05 04:23:04;;;;;;;14.80;8.40;;;;;;;;;;4990918;28;20165;-78
2022/12/05 04:25:37;;;;;;;16.93;8.73;;;;;;;;;;4990954;28;20050;-79
2022/12/05 04:28:22;;;;;;;18.43;9.27;;;;;;;;;;5005964;28;20041;-80
2022/12/05 04:31:05;;;;;;;17.27;9.53;;;;;;;;;;4990025;28;20033;-79
2022/12/05 04:33:55;;;;;;;16.37;8.63;;;;;;;;;;4990612;28;20084;-79
2022/12/05 04:36:45;;;;;;;19.37;9.67;;;;;;;;;;4989571;28;20108;-79
2022/12/05 04:39:20;;;;;;;19.33;10.30;;;;;;;;;;4989707;28;20332;-79
2022/12/05 04:41:59;;;;;;;18.60;9.57;;;;;;;;;;4990172;28;20606;-79
2022/12/05 04:44:29;;;;;;;15.27;8.77;;;;;;;;;;4991799;28;20032;-79
2022/12/05 04:46:58;;;;;;;18.00;8.73;;;;;;;;;;4991164;28;20056;-79
2022/12/05 04:49:26;;;;;;;20.17;9.10;;;;;;;;;;4992716;28;20034;-79
2022/12/05 04:51:55;;;;;;;19.17;9.47;;;;;;;;;;4997598;28;20054;-79
2022/12/05 04:54:29;;;;;;;18.83;10.00;;;;;;;;;;5013423;28;20120;-79
2022/12/05 04:57:06;;;;;;;17.33;9.63;;;;;;;;;;4993678;28;20065;-79
2022/12/05 04:59:32;;;;;;;21.07;10.43;;;;;;;;;;4993241;28;20037;-79
2022/12/05 05:02:05;;;;;;;18.80;10.00;;;;;;;;;;5010043;28;20022;-79
2022/12/05 05:04:44;;;;;;;20.27;10.30;;;;;;;;;;4993496;28;20095;-79
2022/12/05 05:07:11;;;;;;;34.50;11.30;;;;;;;;;;4994588;28;20056;-79
2022/12/05 05:09:38;;;;;;;19.93;9.77;;;;;;;;;;4993348;28;20030;-79
2022/12/05 05:12:05;;;;;;;23.37;9.47;;;;;;;;;;4994769;28;20491;-79
2022/12/05 05:14:31;;;;;;;19.23;11.03;;;;;;;;;;4993105;28;20030;-79
2022/12/05 05:16:57;;;;;;;21.73;10.03;;;;;;;;;;4992867;28;20030;-79
2022/12/05 05:19:23;;;;;;;19.87;9.80;;;;;;;;;;4994434;28;20165;-79
2022/12/05 05:21:48;;;;;;;22.13;9.17;;;;;;;;;;5009624;28;20049;-79
2022/12/05 05:24:14;;;;;;;15.77;9.23;;;;;;;;;;5009178;28;20069;-79
2022/12/05 05:26:42;;;;;;;16.97;9.00;;;;;;;;;;4994597;28;20037;-79
2022/12/05 05:29:08;;;;;;;18.23;9.90;;;;;;;;;;4994317;28;20022;-79
2022/12/05 05:31:35;;;;;;;18.67;9.87;;;;;;;;;;4993388;28;20677;-80
2022/12/05 05:34:01;;;;;;;20.93;10.47;;;;;;;;;;4993901;28;20108;-79
2022/12/05 05:36:27;;;;;;;18.70;9.57;;;;;;;;;;4994070;28;20655;-79
2022/12/05 05:38:57;;;;;;;24.23;10.97;;;;;;;;;;4992146;28;20026;-79
2022/12/05 05:41:34;;;;;;;21.93;10.20;;;;;;;;;;4992557;28;20541;-79
2022/12/05 05:44:03;;;;;;;21.27;10.10;;;;;;;;;;4993732;28;20030;-79
2022/12/05 05:46:30;;;;;;;17.50;10.23;;;;;;;;;;5008399;28;20030;-79
2022/12/05 05:48:56;;;;;;;18.40;9.37;;;;;;;;;;4993708;28;20026;-78
2022/12/05 05:51:26;;;;;;;20.93;10.73;;;;;;;;;;4992826;28;20029;-80
2022/12/05 05:53:52;;;;;;;20.87;11.20;;;;;;;;;;4993017;28;20018;-80
2022/12/05 05:56:19;;;;;;;32.03;14.53;;;;;;;;;;4994728;28;20034;-81
2022/12/05 05:58:45;;;;;;;25.60;11.57;;;;;;;;;;5009149;28;20084;-81
2022/12/05 06:01:21;;;;;;;18.07;9.73;;;;;;;;;;4991981;28;20034;-81
2022/12/05 06:03:49;;;;;;;20.40;10.07;;;;;;;;;;4992777;28;20170;-81
2022/12/05 06:06:15;;;;;;;20.10;10.33;;;;;;;;;;4992944;28;20088;-81
2022/12/05 06:08:42;;;;;;;18.70;10.27;;;;;;;;;;4993799;28;20022;-82
2022/12/05 06:11:19;;;;;;;22.10;10.90;;;;;;;;;;4993716;28;20820;-80
2022/12/05 06:13:45;;;;;;;24.07;11.17;;;;;;;;;;4997694;28;20021;-79
2022/12/05 06:16:12;;;;;;;20.90;11.17;;;;;;;;;;4989341;28;20033;-83
2022/12/05 06:18:38;;;;;;;21.97;10.47;;;;;;;;;;4993252;28;20026;-81
2022/12/05 06:21:07;;;;;;;20.33;11.00;;;;;;;;;;5009398;28;20029;-82
2022/12/05 06:23:34;;;;;;;16.90;9.37;;;;;;;;;;4988141;28;20101;-81
2022/12/05 06:25:59;;;;;;;18.83;9.83;;;;;;;;;;5009130;28;20458;-81
2022/12/05 06:28:25;;;;;;;25.63;11.63;;;;;;;;;;4995316;28;20080;-82
2022/12/05 06:30:51;;;;;;;17.60;10.07;;;;;;;;;;5010533;28;20478;-81
2022/12/05 06:33:18;;;;;;;22.50;11.20;;;;;;;;;;4995431;28;20398;-80
2022/12/05 06:35:43;;;;;;;21.37;9.83;;;;;;;;;;4995064;28;20022;-81
2022/12/05 06:38:09;;;;;;;19.33;10.80;;;;;;;;;;4994772;28;20161;-79
2022/12/05 06:40:40;;;;;;;17.23;9.83;;;;;;;;;;4992373;28;20014;-82
2022/12/05 06:43:06;;;;;;;20.37;9.43;;;;;;;;;;4994017;28;20072;-82
2022/12/05 06:45:31;;;;;;;24.30;10.40;;;;;;;;;;4993147;28;20027;-79
2022/12/05 06:47:57;;;;;;;17.47;9.83;;;;;;;;;;4992962;28;20065;-80
2022/12/05 06:50:22;;;;;;;18.13;9.77;;;;;;;;;;4994257;28;20030;-79
2022/12/05 06:52:49;;;;;;;24.40;9.93;;;;;;;;;;4992811;28;20564;-82
2022/12/05 06:55:15;;;;;;;20.77;10.07;;;;;;;;;;4995478;28;20121;-79
2022/12/05 06:57:40;;;;;;;25.23;11.03;;;;;;;;;;4988331;28;20065;-80
2022/12/05 07:02:51;;;;;;;17.33;9.73;;;;;;;;;;5005462;28;20097;-78
2022/12/05 07:05:17;;;;;;;13.17;8.73;;;;;;;;;;4991980;28;20061;-81
2022/12/05 07:07:43;;;;;;;20.73;10.00;;;;;;;;;;4973919;28;20054;-81
2022/12/05 07:10:08;;;;;;;26.47;9.23;;;;;;;;;;4992475;28;20409;-81
2022/12/05 07:12:34;;;;;;;15.73;9.13;;;;;;;;;;4989715;28;20030;-82
2022/12/05 07:15:00;;;;;;;15.30;9.17;;;;;;;;;;4989675;28;20027;-80
2022/12/05 07:17:26;;;;;;;14.30;8.97;;;;;;;;;;5010827;28;20026;-81
2022/12/05 07:19:52;;;;;;;15.53;8.97;;;;;;;;;;5002996;28;20113;-80
2022/12/05 07:22:19;;;;;;;16.47;9.10;;;;;;;;;;4988031;28;20035;-82
2022/12/05 07:24:45;;;;;;;19.57;9.10;;;;;;;;;;5010844;28;20037;-79
2022/12/05 07:27:12;;;;;;;26.07;11.63;;;;;;;;;;4997270;28;20104;-83
2022/12/05 07:29:38;;;;;;;17.00;9.00;;;;;;;;;;5007481;28;20045;-81
2022/12/05 07:32:04;;;;;;;32.77;14.10;;;;;;;;;;4999350;28;20474;-81
2022/12/05 07:34:29;;;;;;;19.07;10.03;;;;;;;;;;5008293;28;20049;-82
2022/12/05 07:36:55;;;;;;;18.47;10.00;;;;;;;;;;5023494;28;20034;-80
2022/12/05 07:39:20;;;;;;;20.37;9.83;;;;;;;;;;5007766;28;20022;-81
2022/12/05 07:41:45;;;;;;;23.50;10.27;;;;;;;;;;4999535;28;20025;-82
2022/12/05 07:44:12;;;;;;;21.20;9.73;;;;;;;;;;4997722;28;20030;-86
2022/12/05 07:46:40;;;;;;;23.73;11.80;;;;;;;;;;4997429;28;20784;-82
2022/12/05 07:49:06;;;;;;;24.80;10.20;;;;;;;;;;5009371;28;20033;-82
2022/12/05 07:51:32;;;;;;;16.30;9.30;;;;;;;;;;5003370;28;20030;-84
2022/12/05 07:53:58;;;;;;;20.87;9.50;;;;;;;;;;4997950;28;20057;-81
2022/12/05 07:56:24;;;;;;;23.00;12.90;;;;;;;;;;4998419;28;20463;-81
2022/12/05 07:58:52;;;;;;;18.60;10.50;;;;;;;;;;4986118;28;20034;-79
2022/12/05 08:01:21;;;;;;;21.03;10.47;;;;;;;;;;4992228;28;20022;-79
2022/12/05 08:03:47;;;;;;;19.73;9.53;;;;;;;;;;4997145;28;20114;-79
2022/12/05 08:06:16;;;;;;;16.93;9.43;;;;;;;;;;4979035;28;20367;-79
2022/12/05 08:08:42;;;;;;;24.60;9.93;;;;;;;;;;4984625;28;20031;-80
2022/12/05 08:11:16;;;;;;;21.00;9.97;;;;;;;;;;5012030;28;20030;-80
2022/12/05 08:13:43;;;;;;;18.83;10.20;;;;;;;;;;4981109;28;20030;-80
2022/12/05 08:16:15;;;;;;;22.50;10.87;;;;;;;;;;4982533;28;20026;-81
2022/12/05 08:18:42;;;;;;;17.00;8.63;;;;;;;;;;4990382;28;20038;-81
2022/12/05 08:21:13;;;;;;;19.83;10.10;;;;;;;;;;4997589;28;20033;-79
2022/12/05 08:23:40;;;;;;;21.17;9.93;;;;;;;;;;4988096;28;20023;-80
2022/12/05 08:26:13;;;;;;;24.53;8.90;;;;;;;;;;4989993;28;20061;-83
2022/12/05 08:28:39;;;;;;;17.33;9.20;;;;;;;;;;4991370;28;20030;-75
2022/12/05 08:31:10;;;;;;;19.40;8.77;;;;;;;;;;4995896;28;20041;-81
2022/12/05 08:33:36;;;;;;;16.50;8.97;;;;;;;;;;4991197;28;20027;-80
2022/12/05 08:36:05;;;;;;;16.23;9.40;;;;;;;;;;4988908;28;20030;-80
2022/12/05 08:38:31;;;;;;;18.90;9.53;;;;;;;;;;5014658;28;20030;-83
2022/12/05 08:40:59;;;;;;;22.47;9.93;;;;;;;;;;5008072;28;20105;-80
2022/12/05 08:43:25;;;;;;;20.87;9.03;;;;;;;;;;5015456;28;20030;-81
2022/12/05 08:45:52;;;;;;;15.33;8.63;;;;;;;;;;5006652;28;20134;-81
2022/12/05 08:48:18;;;;;;;19.50;10.37;;;;;;;;;;4999156;28;20045;-82
2022/12/05 08:50:43;;;;;;;14.40;8.13;;;;;;;;;;4991530;28;20033;-84
2022/12/05 08:53:09;;;;;;;16.40;7.17;;;;;;;;;;4987994;28;20121;-80
2022/12/05 08:55:34;;;;;;;13.97;7.83;;;;;;;;;;4992277;28;20037;-82
2022/12/05 08:58:00;;;;;;;17.00;8.07;;;;;;;;;;4993296;28;20026;-81
2022/12/05 09:00:26;;;;;;;20.90;9.63;;;;;;;;;;4989249;28;20031;-78
2022/12/05 09:02:51;;;;;;;17.97;8.53;;;;;;;;;;4988839;28;20041;-80
2022/12/05 09:05:17;;;;;;;22.87;9.87;;;;;;;;;;4987332;28;20113;-80
2022/12/05 09:07:43;;;;;;;19.70;8.83;;;;;;;;;;4987764;28;20150;-78
2022/12/05 09:10:09;;;;;;;18.47;9.23;;;;;;;;;;5019683;28;20030;-80
2022/12/05 09:12:36;;;;;;;21.83;8.77;;;;;;;;;;4987518;28;20014;-81
2022/12/05 09:15:02;;;;;;;18.10;8.23;;;;;;;;;;4982896;28;20104;-80
2022/12/05 09:17:28;;;;;;;19.70;7.50;;;;;;;;;;4989467;28;20022;-81
2022/12/05 09:19:53;;;;;;;13.53;7.60;;;;;;;;;;4986709;28;20499;-80
2022/12/05 09:22:18;;;;;;;13.97;7.50;;;;;;;;;;4986730;28;20045;-81
2022/12/05 09:24:44;;;;;;;15.10;7.87;;;;;;;;;;4984586;28;20037;-79
2022/12/05 09:27:09;;;;;;;20.83;8.70;;;;;;;;;;4983661;28;20046;-79
2022/12/05 09:29:36;;;;;;;16.07;8.63;;;;;;;;;;4991395;28;20065;-80
2022/12/05 09:32:11;;;;;;;17.47;8.83;;;;;;;;;;5010179;28;20551;-76
2022/12/05 09:34:37;;;;;;;13.33;6.83;;;;;;;;;;4992127;28;20031;-81
2022/12/05 09:37:04;;;;;;;19.43;7.17;;;;;;;;;;4989816;28;20121;-82
2022/12/05 09:39:30;;;;;;;16.10;7.53;;;;;;;;;;4976327;28;20115;-83
2022/12/05 09:42:37;;;;;;;18.30;8.97;;;;;;;;;;4974099;28;20475;-83
2022/12/05 09:45:02;;;;;;;23.63;9.20;;;;;;;;;;4990593;28;20486;-80
2022/12/05 09:47:40;;;;;;;18.70;8.50;;;;;;;;;;4991501;28;20022;-80
2022/12/05 09:50:20;;;;;;;21.87;8.53;;;;;;;;;;4990315;28;20324;-82
2022/12/05 09:53:00;;;;;;;17.97;8.50;;;;;;;;;;5001980;28;20033;-80
2022/12/05 09:55:34;;;;;;;22.40;8.00;;;;;;;;;;4986881;28;20032;-79
2022/12/05 09:58:02;;;;;;;15.30;7.07;;;;;;;;;;4992940;28;20022;-80
2022/12/05 10:00:31;;;;;;;15.23;7.67;;;;;;;;;;4998158;28;20022;-79
2022/12/05 10:03:02;;;;;;;13.77;7.07;;;;;;;;;;4990506;28;20026;-81
2022/12/05 10:05:56;;;;;;;12.98;6.97;;;;;;;;;;4988632;28;20057;-79
2022/12/05 10:08:57;;;;;;;15.33;7.60;;;;;;;;;;4987685;28;20065;-80
2022/12/05 10:11:57;;;;;;;15.93;7.23;;;;;;;;;;5005770;28;20105;-81
2022/12/05 10:14:58;;;;;;;10.90;6.07;;;;;;;;;;4990206;28;20039;-81
2022/12/05 10:17:50;;;;;;;14.40;6.70;;;;;;;;;;4994027;28;20023;-79
2022/12/05 10:20:23;;;;;;;16.47;8.13;;;;;;;;;;4986399;28;20042;-82
2022/12/05 10:22:51;;;;;;;23.50;8.73;;;;;;;;;;4991385;28;20319;-81
2022/12/05 10:25:24;;;;;;;17.47;8.67;;;;;;;;;;5001237;28;20042;-82
2022/12/05 10:28:04;;;;;;;17.07;7.53;;;;;;;;;;5005095;28;20038;-78
2022/12/05 10:30:34;;;;;;;14.67;7.13;;;;;;;;;;4995026;28;20500;-79
2022/12/05 10:33:13;;;;;;;15.87;7.33;;;;;;;;;;5003666;28;20033;-78
2022/12/05 10:35:40;;;;;;;15.10;7.37;;;;;;;;;;4990197;28;20482;-79
2022/12/05 10:38:27;;;;;;;19.33;8.03;;;;;;;;;;4985821;28;20383;-78
2022/12/05 10:41:02;;;;;;;15.37;6.90;;;;;;;;;;4986502;28;20065;-78
2022/12/05 10:43:31;;;;;;;17.77;8.63;;;;;;;;;;4991274;28;20041;-77
2022/12/05 10:45:57;;;;;;;21.50;9.40;;;;;;;;;;4987857;28;20084;-80
2022/12/05 10:48:24;;;;;;;14.47;7.67;;;;;;;;;;4991651;28;20077;-80
2022/12/05 10:50:54;;;;;;;24.77;8.30;;;;;;;;;;4993482;28;20136;-81
2022/12/05 10:53:24;;;;;;;31.77;18.23;;;;;;;;;;4997339;28;20029;-80
2022/12/05 10:55:51;;;;;;;15.30;8.40;;;;;;;;;;4994922;28;20045;-79
2022/12/05 10:58:22;;;;;;;19.00;9.57;;;;;;;;;;4990321;28;20108;-79
2022/12/05 11:00:50;;;;;;;19.70;9.32;;;;;;;;;;4992648;28;20037;-80
2022/12/05 11:03:35;;;;;;;17.97;9.17;;;;;;;;;;4986987;28;20147;-81
2022/12/05 11:06:23;;;;;;;21.90;9.40;;;;;;;;;;4992956;28;20053;-81
2022/12/05 11:09:23;;;;;;;27.90;9.40;;;;;;;;;;5003281;28;20038;-78
2022/12/05 11:12:19;;;;;;;17.70;7.33;;;;;;;;;;4990790;28;20034;-79
2022/12/05 11:14:56;;;;;;;18.23;9.07;;;;;;;;;;4986696;28;20030;-78
2022/12/05 11:17:31;;;;;;;20.60;8.43;;;;;;;;;;4963772;28;20051;-81
2022/12/05 11:19:56;;;;;;;22.63;8.80;;;;;;;;;;4985523;28;20026;-79
2022/12/05 11:22:34;;;;;;;17.10;8.13;;;;;;;;;;4983500;28;20022;-78
2022/12/05 11:24:59;;;;;;;24.50;8.43;;;;;;;;;;4975473;28;20443;-79
2022/12/05 11:27:31;;;;;;;15.10;8.00;;;;;;;;;;5002906;28;20034;-78
2022/12/05 11:30:01;;;;;;;26.10;9.35;;;;;;;;;;4975554;28;20129;-78
2022/12/05 11:32:30;;;;;;;25.47;9.73;;;;;;;;;;4982825;28;20117;-80
2022/12/05 11:35:06;;;;;;;13.37;8.13;;;;;;;;;;4979834;28;20035;-79
2022/12/05 11:37:45;;;;;;;20.87;8.20;;;;;;;;;;4988964;28;20026;-82
2022/12/05 11:40:17;;;;;;;22.30;8.73;;;;;;;;;;4986596;28;20029;-82
2022/12/05 11:43:15;;;;;;;25.45;9.90;;;;;;;;;;4984565;28;20030;-79
2022/12/05 11:45:51;;;;;;;37.00;10.90;;;;;;;;;;4939075;28;20051;-82
2022/12/05 11:48:37;;;;;;;18.23;7.43;;;;;;;;;;5005009;28;20069;-81
2022/12/05 11:51:44;;;;;;;16.20;7.17;;;;;;;;;;4988572;28;20659;-82
2022/12/05 11:54:41;;;;;;;15.30;7.53;;;;;;;;;;4965232;28;20486;-80
2022/12/05 11:57:45;;;;;;;15.17;7.67;;;;;;;;;;4988873;28;20105;-79
2022/12/05 12:00:21;;;;;;;18.33;9.50;;;;;;;;;;4984034;28;20624;-80
2022/12/05 12:02:52;;;;;;;14.73;7.93;;;;;;;;;;4979000;28;20121;-80
2022/12/05 12:05:51;;;;;;;19.25;10.43;;;;;;;;;;4988798;28;20034;-80
2022/12/05 12:08:38;;;;;;;18.10;8.33;;;;;;;;;;4981781;28;20040;-82
2022/12/05 12:11:18;;;;;;;22.80;8.17;;;;;;;;;;4988035;28;20073;-83
2022/12/05 12:13:49;;;;;;;18.43;8.47;;;;;;;;;;4984464;28;20018;-84
2022/12/05 12:16:33;;;;;;;18.17;8.90;;;;;;;;;;4975430;28;20488;-86
2022/12/05 12:19:14;;;;;;;22.83;9.30;;;;;;;;;;4972264;28;20096;-82
2022/12/05 12:21:52;;;;;;;38.60;20.57;;;;;;;;;;4987048;28;20033;-77
2022/12/05 12:24:39;;;;;;;17.97;8.53;;;;;;;;;;4974447;28;20042;-77
2022/12/05 12:27:15;;;;;;;22.37;9.30;;;;;;;;;;4980643;28;20032;-77
2022/12/05 12:29:47;;;;;;;14.93;7.60;;;;;;;;;;4998362;28;20577;-79
2022/12/05 12:32:35;;;;;;;20.58;9.80;;;;;;;;;;4990899;28;20543;-80
2022/12/05 12:35:16;;;;;;;22.50;9.17;;;;;;;;;;4980637;28;20026;-80
2022/12/05 12:38:05;;;;;;;20.10;8.60;;;;;;;;;;4986340;28;20054;-81
2022/12/05 12:40:39;;;;;;;18.73;7.50;;;;;;;;;;4995454;28;20046;-80
2022/12/05 12:43:20;;;;;;;27.80;9.02;;;;;;;;;;4987812;28;20037;-81
2022/12/05 12:46:13;;;;;;;17.23;8.55;;;;;;;;;;4995594;28;20427;-75
2022/12/05 12:49:16;;;;;;;23.17;9.95;;;;;;;;;;4970515;28;20039;-79
2022/12/05 12:51:52;;;;;;;16.47;7.93;;;;;;;;;;4981487;28;20026;-79
2022/12/05 12:54:21;;;;;;;18.33;8.20;;;;;;;;;;4979328;28;20035;-80
2022/12/05 12:57:05;;;;;;;16.40;8.23;;;;;;;;;;4985090;28;20042;-76
2022/12/05 12:59:55;;;;;;;17.60;8.88;;;;;;;;;;4981118;28;20056;-79
2022/12/05 13:02:27;;;;;;;25.35;11.18;;;;;;;;;;4980520;28;20043;-78
2022/12/05 13:05:36;;;;;;;14.13;8.23;;;;;;;;;;4977633;28;20153;-77
2022/12/05 13:08:29;;;;;;;26.67;11.20;;;;;;;;;;4997182;28;20097;-77
2022/12/05 13:10:57;;;;;;;32.53;10.55;;;;;;;;;;4977659;28;20038;-79
2022/12/05 13:13:36;;;;;;;18.55;8.45;;;;;;;;;;4988367;28;20026;-79
2022/12/05 13:16:06;;;;;;;19.90;8.73;;;;;;;;;;4974198;28;20048;-78
2022/12/05 13:18:33;;;;;;;14.63;8.77;;;;;;;;;;4984394;28;20037;-77
2022/12/05 13:21:04;;;;;;;26.85;8.73;;;;;;;;;;4991446;28;20026;-77
2022/12/05 13:23:33;;;;;;;34.47;11.48;;;;;;;;;;4998781;28;20034;-80
2022/12/05 13:26:00;;;;;;;25.83;9.18;;;;;;;;;;4993551;28;20026;-79
2022/12/05 13:28:48;;;;;;;25.27;9.93;;;;;;;;;;4988314;28;20108;-80
2022/12/05 13:31:15;;;;;;;19.95;9.30;;;;;;;;;;4979143;28;20026;-78
2022/12/05 13:33:44;;;;;;;23.25;9.55;;;;;;;;;;4978763;28;20046;-79
2022/12/05 13:42:38;;;;;;;19.73;8.40;;;;;;;;;;4983036;28;20045;-77
2022/12/05 13:45:04;;;;;;;21.10;8.70;;;;;;;;;;4994404;28;20080;-77
2022/12/05 13:47:32;;;;;;;14.97;7.30;;;;;;;;;;4979546;28;20057;-78
2022/12/05 13:50:07;;;;;;;15.57;7.40;;;;;;;;;;4998602;28;20026;-81
2022/12/05 13:52:43;;;;;;;17.75;9.02;;;;;;;;;;4987714;28;20351;-78
2022/12/05 13:55:53;;;;;;;23.17;8.83;;;;;;;;;;4980470;28;20022;-78
2022/12/05 13:58:19;;;;;;;19.17;8.43;;;;;;;;;;4965887;28;20030;-79
2022/12/05 14:00:45;;;;;;;15.05;7.47;;;;;;;;;;4983102;28;20105;-79
2022/12/05 14:03:37;;;;;;;16.83;7.97;;;;;;;;;;4980488;28;20112;-81
2022/12/05 14:06:05;;;;;;;15.77;8.07;;;;;;;;;;4985661;28;20065;-79
2022/12/05 14:08:30;;;;;;;17.50;7.80;;;;;;;;;;4986675;28;20487;-78
2022/12/05 14:10:56;;;;;;;28.37;10.50;;;;;;;;;;4999739;28;20034;-79
2022/12/05 14:13:22;;;;;;;20.08;8.68;;;;;;;;;;4981737;28;20027;-79
2022/12/05 14:15:49;;;;;;;44.13;10.53;;;;;;;;;;4981345;28;20487;-78
2022/12/05 14:18:21;;;;;;;29.52;9.80;;;;;;;;;;4985596;28;20038;-78
2022/12/05 14:21:06;;;;;;;15.50;7.90;;;;;;;;;;4984047;28;20113;-78
2022/12/05 14:24:05;;;;;;;19.90;8.23;;;;;;;;;;4995551;28;20033;-76
2022/12/05 14:26:51;;;;;;;23.87;8.93;;;;;;;;;;4984065;28;20030;-79
2022/12/05 14:29:29;;;;;;;16.23;8.33;;;;;;;;;;4978414;28;20707;-79
2022/12/05 14:32:23;;;;;;;20.38;9.48;;;;;;;;;;4980758;28;20057;-77
2022/12/05 14:34:48;;;;;;;20.30;9.90;;;;;;;;;;4979584;28;20033;-78
2022/12/05 14:37:14;;;;;;;27.33;8.87;;;;;;;;;;4984565;28;20129;-79
2022/12/05 14:39:50;;;;;;;19.83;8.30;;;;;;;;;;4986585;28;20090;-80
2022/12/05 14:42:22;;;;;;;23.43;9.63;;;;;;;;;;4978448;28;20039;-79
2022/12/05 14:44:54;;;;;;;20.17;10.10;;;;;;;;;;4982629;28;20494;-79
2022/12/05 14:47:23;;;;;;;14.63;8.35;;;;;;;;;;4987505;28;20105;-79
2022/12/05 14:50:08;;;;;;;22.80;8.60;;;;;;;;;;4989707;28;20045;-79
2022/12/05 14:52:33;;;;;;;20.93;9.50;;;;;;;;;;4990488;28;20262;-80
2022/12/05 14:55:04;;;;;;;16.93;7.77;;;;;;;;;;4981605;28;20038;-79
2022/12/05 14:57:34;;;;;;;16.52;9.32;;;;;;;;;;4984824;28;20070;-80
2022/12/05 15:00:05;;;;;;;24.23;9.23;;;;;;;;;;4976822;28;20045;-80
2022/12/05 15:02:42;;;;;;;22.35;8.38;;;;;;;;;;4998660;28;20034;-78
2022/12/05 15:05:19;;;;;;;19.30;9.47;;;;;;;;;;4979434;28;20034;-79
2022/12/05 15:07:46;;;;;;;17.07;8.23;;;;;;;;;;4986369;28;20125;-79
2022/12/05 15:10:37;;;;;;;19.03;8.80;;;;;;;;;;4985355;28;20238;-78
2022/12/05 15:13:26;;;;;;;26.20;9.13;;;;;;;;;;4977093;28;20034;-78